createdAt,value
2018-06-02T00:00:34.487Z,17.91
2018-06-02T00:01:43.129Z,17.82
2018-06-02T00:02:52.042Z,17.87
2018-06-02T00:04:00.698Z,17.75
2018-06-02T00:05:09.343Z,17.8
2018-06-02T00:06:17.984Z,17.82
2018-06-02T00:07:26.634Z,17.84
2018-06-02T00:08:35.285Z,17.8
2018-06-02T00:09:44.195Z,17.73
2018-06-02T00:10:52.839Z,17.75
2018-06-02T00:12:01.491Z,17.78
2018-06-02T00:13:10.139Z,17.78
2018-06-02T00:14:18.783Z,17.78
2018-06-02T00:15:27.435Z,17.73
2018-06-02T00:16:36.082Z,17.73
2018-06-02T00:17:44.730Z,17.79
2018-06-02T00:18:53.373Z,17.65
2018-06-02T00:20:02.027Z,17.69
2018-06-02T00:21:10.674Z,17.72
2018-06-02T00:22:19.322Z,17.72
2018-06-02T00:23:27.972Z,17.66
2018-06-02T00:24:36.615Z,17.6
2018-06-02T00:25:45.272Z,17.56
2018-06-02T00:26:53.917Z,17.6
2018-06-02T00:28:02.568Z,17.53
2018-06-02T00:29:11.214Z,17.5
2018-06-02T00:30:19.861Z,17.53
2018-06-02T00:31:28.506Z,17.56
2018-06-02T00:32:37.150Z,17.49
2018-06-02T00:33:45.807Z,17.42
2018-06-02T00:34:54.714Z,17.49
2018-06-02T00:36:03.365Z,17.46
2018-06-02T00:37:12.009Z,17.5
2018-06-02T00:38:20.661Z,17.52
2018-06-02T00:39:29.308Z,17.42
2018-06-02T00:40:37.957Z,17.46
2018-06-02T00:41:46.865Z,17.54
2018-06-02T00:42:55.518Z,17.56
2018-06-02T00:44:04.164Z,17.47
2018-06-02T00:45:12.817Z,17.5
2018-06-02T00:46:21.462Z,17.42
2018-06-02T00:47:30.112Z,17.41
2018-06-02T00:48:38.757Z,17.38
2018-06-02T00:49:47.410Z,17.28
2018-06-02T00:50:56.053Z,17.38
2018-06-02T00:52:04.695Z,17.35
2018-06-02T00:53:13.342Z,17.38
2018-06-02T00:54:21.989Z,17.39
2018-06-02T00:55:30.641Z,17.39
2018-06-02T00:56:39.548Z,17.41
2018-06-02T00:57:48.196Z,17.38
2018-06-02T00:58:56.845Z,17.37
2018-06-02T01:00:05.496Z,17.39
2018-06-02T01:01:14.138Z,17.46
2018-06-02T01:02:22.789Z,17.39
2018-06-02T01:03:31.696Z,17.5
2018-06-02T01:04:40.347Z,17.39
2018-06-02T01:05:48.992Z,17.41
2018-06-02T01:06:57.639Z,17.38
2018-06-02T01:08:06.288Z,17.46
2018-06-02T01:09:14.928Z,17.35
2018-06-02T01:10:23.838Z,17.35
2018-06-02T01:11:32.483Z,17.34
2018-06-02T01:12:41.130Z,17.38
2018-06-02T01:13:49.771Z,17.35
2018-06-02T01:14:58.689Z,17.47
2018-06-02T01:16:07.336Z,17.44
2018-06-02T01:17:15.988Z,17.39
2018-06-02T01:18:24.893Z,17.44
2018-06-02T01:19:33.546Z,17.41
2018-06-02T01:20:42.191Z,17.38
2018-06-02T01:21:50.841Z,17.42
2018-06-02T01:22:59.478Z,17.37
2018-06-02T01:24:08.132Z,17.37
2018-06-02T01:25:16.781Z,17.42
2018-06-02T01:26:25.696Z,17.35
2018-06-02T01:27:34.347Z,17.37
2018-06-02T01:28:42.986Z,17.37
2018-06-02T01:29:51.637Z,17.42
2018-06-02T01:31:00.280Z,17.39
2018-06-02T01:32:08.936Z,17.34
2018-06-02T01:33:17.574Z,17.32
2018-06-02T01:34:26.230Z,17.31
2018-06-02T01:35:34.869Z,17.38
2018-06-02T01:36:43.525Z,17.34
2018-06-02T01:37:52.430Z,17.39
2018-06-02T01:39:01.081Z,17.34
2018-06-02T01:40:09.729Z,17.24
2018-06-02T01:41:18.380Z,17.38
2018-06-02T01:42:27.026Z,17.37
2018-06-02T01:43:35.668Z,17.38
2018-06-02T01:44:44.315Z,17.39
2018-06-02T01:45:52.954Z,17.35
2018-06-02T01:47:01.609Z,17.35
2018-06-02T01:48:10.260Z,17.34
2018-06-02T01:49:19.180Z,17.32
2018-06-02T01:50:27.820Z,17.37
2018-06-02T01:51:36.476Z,17.37
2018-06-02T01:52:45.118Z,17.35
2018-06-02T01:53:54.033Z,17.31
2018-06-02T01:55:02.671Z,17.35
2018-06-02T01:56:11.325Z,17.37
2018-06-02T01:57:19.972Z,17.38
2018-06-02T01:58:28.621Z,17.35
2018-06-02T01:59:37.253Z,17.31
2018-06-02T02:00:46.168Z,17.34
2018-06-02T02:01:54.817Z,17.34
2018-06-02T02:03:03.466Z,17.35
2018-06-02T02:04:12.114Z,17.3
2018-06-02T02:05:20.753Z,17.3
2018-06-02T02:06:29.402Z,17.3
2018-06-02T02:07:38.045Z,17.31
2018-06-02T02:08:46.700Z,17.27
2018-06-02T02:09:55.338Z,17.27
2018-06-02T02:11:03.988Z,17.31
2018-06-02T02:12:12.630Z,17.34
2018-06-02T02:13:21.286Z,17.35
2018-06-02T02:14:29.929Z,17.38
2018-06-02T02:15:38.582Z,17.35
2018-06-02T02:16:47.232Z,17.34
2018-06-02T02:17:56.156Z,17.34
2018-06-02T02:19:04.802Z,17.38
2018-06-02T02:20:13.706Z,17.34
2018-06-02T02:21:22.351Z,17.38
2018-06-02T02:22:30.994Z,17.38
2018-06-02T02:23:39.915Z,17.3
2018-06-02T02:24:48.565Z,17.23
2018-06-02T02:25:57.212Z,17.23
2018-06-02T02:27:05.855Z,17.22
2018-06-02T02:28:14.512Z,17.23
2018-06-02T02:29:23.155Z,17.22
2018-06-02T02:30:31.804Z,17.2
2018-06-02T02:31:40.449Z,17.22
2018-06-02T02:32:49.372Z,17.22
2018-06-02T02:33:58.017Z,17.24
2018-06-02T02:35:06.678Z,17.22
2018-06-02T02:36:15.331Z,17.22
2018-06-02T02:37:23.978Z,17.24
2018-06-02T02:38:32.630Z,17.28
2018-06-02T02:39:41.288Z,17.23
2018-06-02T02:40:49.936Z,17.22
2018-06-02T02:41:58.585Z,17.22
2018-06-02T02:43:07.233Z,17.2
2018-06-02T02:44:15.884Z,17.23
2018-06-02T02:45:24.548Z,17.2
2018-06-02T02:46:33.179Z,17.22
2018-06-02T02:47:42.107Z,17.2
2018-06-02T02:48:51.030Z,17.22
2018-06-02T02:49:59.691Z,17.13
2018-06-02T02:51:08.347Z,17.27
2018-06-02T02:52:17.003Z,17.27
2018-06-02T02:53:25.642Z,17.34
2018-06-02T02:54:34.296Z,17.31
2018-06-02T02:55:42.951Z,17.34
2018-06-02T02:56:51.860Z,17.31
2018-06-02T02:58:00.765Z,17.3
2018-06-02T02:59:09.409Z,17.23
2018-06-02T03:00:18.063Z,17.23
2018-06-02T03:01:27.115Z,17.2
2018-06-02T03:02:36.376Z,17.17
2018-06-02T03:03:45.429Z,17.17
2018-06-02T03:04:54.480Z,17.13
2018-06-02T03:06:03.501Z,17.16
2018-06-02T03:07:12.529Z,17.17
2018-06-02T03:08:21.585Z,17.23
2018-06-02T03:09:30.744Z,17.22
2018-06-02T03:10:39.434Z,17.14
2018-06-02T03:11:48.083Z,17.14
2018-06-02T03:12:56.820Z,17.19
2018-06-02T03:14:06.001Z,17.16
2018-06-02T03:15:14.787Z,17.14
2018-06-02T03:16:23.682Z,17.17
2018-06-02T03:17:32.841Z,17.16
2018-06-02T03:18:41.579Z,17.16
2018-06-02T03:19:50.230Z,17.19
2018-06-02T03:20:58.878Z,17.2
2018-06-02T03:22:07.527Z,17.2
2018-06-02T03:23:16.176Z,17.24
2018-06-02T03:24:24.818Z,17.24
2018-06-02T03:25:33.459Z,17.22
2018-06-02T03:26:42.114Z,17.22
2018-06-02T03:27:50.754Z,17.2
2018-06-02T03:28:59.403Z,17.17
2018-06-02T03:30:08.052Z,17.14
2018-06-02T03:31:16.713Z,17.14
2018-06-02T03:32:25.633Z,17.12
2018-06-02T03:33:34.805Z,17.16
2018-06-02T03:34:43.447Z,17.13
2018-06-02T03:35:52.091Z,17.17
2018-06-02T03:37:00.747Z,17.19
2018-06-02T03:38:09.390Z,17.19
2018-06-02T03:39:18.047Z,17.17
2018-06-02T03:40:26.951Z,17.2
2018-06-02T03:41:35.607Z,17.14
2018-06-02T03:42:44.249Z,17.16
2018-06-02T03:43:52.900Z,17.2
2018-06-02T03:45:01.541Z,17.19
2018-06-02T03:46:10.194Z,17.22
2018-06-02T03:47:19.110Z,17.22
2018-06-02T03:48:27.757Z,17.22
2018-06-02T03:49:36.397Z,17.24
2018-06-02T03:50:45.050Z,17.23
2018-06-02T03:51:53.702Z,17.31
2018-06-02T03:53:02.356Z,17.27
2018-06-02T03:54:11.272Z,17.16
2018-06-02T03:55:19.912Z,17.27
2018-06-02T03:56:28.577Z,17.24
2018-06-02T03:57:37.224Z,17.32
2018-06-02T03:58:46.139Z,17.27
2018-06-02T03:59:54.777Z,17.17
2018-06-02T04:01:03.426Z,17.12
2018-06-02T04:02:12.070Z,17.23
2018-06-02T04:03:20.728Z,17.24
2018-06-02T04:04:29.635Z,17.17
2018-06-02T04:05:38.277Z,17.24
2018-06-02T04:06:46.923Z,17.23
2018-06-02T04:07:55.580Z,17.22
2018-06-02T04:09:04.219Z,17.22
2018-06-02T04:10:12.862Z,17.19
2018-06-02T04:11:21.504Z,17.22
2018-06-02T04:12:30.159Z,17.2
2018-06-02T04:13:38.807Z,17.3
2018-06-02T04:14:47.450Z,17.3
2018-06-02T04:15:56.480Z,17.28
2018-06-02T04:17:05.054Z,17.23
2018-06-02T04:18:13.700Z,17.27
2018-06-02T04:19:22.618Z,17.23
2018-06-02T04:20:31.261Z,17.2
2018-06-02T04:21:39.916Z,17.2
2018-06-02T04:22:48.555Z,17.32
2018-06-02T04:23:57.210Z,17.27
2018-06-02T04:25:06.120Z,17.31
2018-06-02T04:26:14.776Z,17.34
2018-06-02T04:27:23.419Z,17.31
2018-06-02T04:28:32.059Z,17.31
2018-06-02T04:29:40.700Z,17.37
2018-06-02T04:30:49.612Z,17.39
2018-06-02T04:31:58.270Z,17.3
2018-06-02T04:33:06.911Z,17.3
2018-06-02T04:34:15.561Z,17.3
2018-06-02T04:35:24.203Z,17.37
2018-06-02T04:36:32.861Z,17.31
2018-06-02T04:37:41.504Z,17.31
2018-06-02T04:38:50.423Z,17.35
2018-06-02T04:39:59.328Z,17.37
2018-06-02T04:41:08.249Z,17.31
2018-06-02T04:42:16.893Z,17.38
2018-06-02T04:43:25.544Z,17.3
2018-06-02T04:44:34.186Z,17.3
2018-06-02T04:45:43.099Z,17.35
2018-06-02T04:46:51.746Z,17.31
2018-06-02T04:48:00.397Z,17.34
2018-06-02T04:49:09.046Z,17.34
2018-06-02T04:50:17.689Z,17.3
2018-06-02T04:51:26.340Z,17.42
2018-06-02T04:52:34.980Z,17.39
2018-06-02T04:53:43.636Z,17.34
2018-06-02T04:54:52.273Z,17.39
2018-06-02T04:56:01.188Z,17.38
2018-06-02T04:57:09.833Z,17.31
2018-06-02T04:58:18.485Z,17.31
2018-06-02T04:59:27.123Z,17.27
2018-06-02T05:00:35.772Z,17.31
2018-06-02T05:01:44.687Z,17.34
2018-06-02T05:02:53.344Z,17.42
2018-06-02T05:04:01.987Z,17.35
2018-06-02T05:05:10.631Z,17.41
2018-06-02T05:06:19.274Z,17.41
2018-06-02T05:07:28.186Z,17.41
2018-06-02T05:08:37.104Z,17.37
2018-06-02T05:09:45.747Z,17.37
2018-06-02T05:10:54.399Z,17.38
2018-06-02T05:12:03.038Z,17.41
2018-06-02T05:13:11.695Z,17.38
2018-06-02T05:14:20.336Z,17.56
2018-06-02T05:15:28.987Z,17.53
2018-06-02T05:16:37.627Z,17.52
2018-06-02T05:17:46.548Z,17.54
2018-06-02T05:18:55.194Z,17.47
2018-06-02T05:20:03.844Z,17.42
2018-06-02T05:21:12.487Z,17.46
2018-06-02T05:22:21.137Z,17.39
2018-06-02T05:23:30.307Z,17.49
2018-06-02T05:24:39.220Z,17.49
2018-06-02T05:25:47.875Z,17.42
2018-06-02T05:26:56.517Z,17.44
2018-06-02T05:28:05.163Z,17.42
2018-06-02T05:29:13.824Z,17.46
2018-06-02T05:30:22.464Z,17.5
2018-06-02T05:31:31.109Z,17.44
2018-06-02T05:32:39.751Z,17.39
2018-06-02T05:33:48.397Z,17.39
2018-06-02T05:34:57.052Z,17.42
2018-06-02T05:36:06.226Z,17.39
2018-06-02T05:37:14.875Z,17.46
2018-06-02T05:38:23.520Z,17.5
2018-06-02T05:39:32.170Z,17.39
2018-06-02T05:40:40.813Z,17.44
2018-06-02T05:41:49.461Z,17.53
2018-06-02T05:42:58.103Z,17.54
2018-06-02T05:44:06.747Z,17.49
2018-06-02T05:45:15.399Z,17.49
2018-06-02T05:46:24.047Z,17.53
2018-06-02T05:47:32.699Z,17.5
2018-06-02T05:48:41.334Z,17.47
2018-06-02T05:49:49.988Z,17.52
2018-06-02T05:50:58.632Z,17.52
2018-06-02T05:52:07.279Z,17.63
2018-06-02T05:53:15.921Z,17.59
2018-06-02T05:54:24.573Z,17.57
2018-06-02T05:55:33.216Z,17.59
2018-06-02T05:56:41.866Z,17.65
2018-06-02T05:57:50.512Z,17.57
2018-06-02T05:58:59.159Z,17.65
2018-06-02T06:00:07.809Z,17.56
2018-06-02T06:01:16.459Z,17.68
2018-06-02T06:02:25.110Z,17.63
2018-06-02T06:03:33.754Z,17.6
2018-06-02T06:04:42.402Z,17.6
2018-06-02T06:05:51.050Z,17.56
2018-06-02T06:06:59.701Z,17.63
2018-06-02T06:08:08.342Z,17.66
2018-06-02T06:09:16.991Z,17.54
2018-06-02T06:10:25.634Z,17.65
2018-06-02T06:11:34.286Z,17.63
2018-06-02T06:12:42.930Z,17.66
2018-06-02T06:13:51.575Z,17.69
2018-06-02T06:15:00.222Z,17.66
2018-06-02T06:16:09.147Z,17.68
2018-06-02T06:17:18.058Z,17.68
2018-06-02T06:18:26.704Z,17.65
2018-06-02T06:19:35.370Z,17.71
2018-06-02T06:20:43.993Z,17.75
2018-06-02T06:21:52.644Z,17.69
2018-06-02T06:23:01.290Z,17.68
2018-06-02T06:24:10.201Z,17.6
2018-06-02T06:25:18.843Z,17.65
2018-06-02T06:26:27.494Z,17.65
2018-06-02T06:27:36.403Z,17.66
2018-06-02T06:28:45.051Z,17.65
2018-06-02T06:29:53.954Z,17.59
2018-06-02T06:31:02.606Z,17.63
2018-06-02T06:32:11.254Z,17.59
2018-06-02T06:33:19.900Z,17.59
2018-06-02T06:34:28.547Z,17.54
2018-06-02T06:35:37.198Z,17.63
2018-06-02T06:36:45.837Z,17.66
2018-06-02T06:37:54.745Z,17.6
2018-06-02T06:39:03.419Z,17.63
2018-06-02T06:40:12.036Z,17.6
2018-06-02T06:41:20.684Z,17.66
2018-06-02T06:42:29.593Z,17.65
2018-06-02T06:43:38.245Z,17.65
2018-06-02T06:44:46.926Z,17.56
2018-06-02T06:45:55.539Z,17.63
2018-06-02T06:47:04.187Z,17.6
2018-06-02T06:48:12.838Z,17.6
2018-06-02T06:49:21.481Z,17.69
2018-06-02T06:50:30.131Z,17.63
2018-06-02T06:51:38.779Z,17.66
2018-06-02T06:52:47.436Z,17.65
2018-06-02T06:53:56.077Z,17.68
2018-06-02T06:55:04.725Z,17.65
2018-06-02T06:56:13.370Z,17.73
2018-06-02T06:57:22.014Z,17.72
2018-06-02T06:58:30.668Z,17.75
2018-06-02T06:59:39.844Z,17.72
2018-06-02T07:00:48.753Z,17.66
2018-06-02T07:01:57.400Z,17.76
2018-06-02T07:03:06.047Z,17.71
2018-06-02T07:04:14.694Z,17.72
2018-06-02T07:05:23.341Z,17.75
2018-06-02T07:06:31.987Z,17.76
2018-06-02T07:07:40.637Z,17.69
2018-06-02T07:08:49.549Z,17.72
2018-06-02T07:09:58.490Z,17.72
2018-06-02T07:11:07.137Z,17.65
2018-06-02T07:12:15.778Z,17.73
2018-06-02T07:13:24.429Z,17.73
2018-06-02T07:14:33.082Z,17.72
2018-06-02T07:15:42.016Z,17.72
2018-06-02T07:16:50.637Z,17.75
2018-06-02T07:17:59.286Z,17.78
2018-06-02T07:19:07.926Z,17.78
2018-06-02T07:20:16.582Z,17.8
2018-06-02T07:21:25.490Z,17.8
2018-06-02T07:22:34.408Z,17.76
2018-06-02T07:23:43.052Z,17.82
2018-06-02T07:24:51.735Z,17.79
2018-06-02T07:26:01.153Z,17.79
2018-06-02T07:27:09.811Z,17.76
2018-06-02T07:28:18.454Z,17.82
2018-06-02T07:29:27.104Z,17.86
2018-06-02T07:30:35.754Z,17.8
2018-06-02T07:31:44.392Z,17.82
2018-06-02T07:32:53.041Z,17.86
2018-06-02T07:34:01.687Z,17.88
2018-06-02T07:35:10.343Z,17.82
2018-06-02T07:36:18.990Z,17.87
2018-06-02T07:37:27.638Z,17.91
2018-06-02T07:38:36.276Z,17.97
2018-06-02T07:39:44.933Z,17.94
2018-06-02T07:40:53.576Z,18.02
2018-06-02T07:42:02.491Z,17.94
2018-06-02T07:43:11.130Z,17.93
2018-06-02T07:44:19.818Z,17.95
2018-06-02T07:45:28.433Z,17.97
2018-06-02T07:46:37.348Z,17.97
2018-06-02T07:47:46.262Z,17.97
2018-06-02T07:48:54.913Z,17.94
2018-06-02T07:50:03.569Z,17.93
2018-06-02T07:51:12.919Z,17.97
2018-06-02T07:52:21.569Z,17.95
2018-06-02T07:53:30.207Z,18.06
2018-06-02T07:54:39.120Z,18.08
2018-06-02T07:55:48.028Z,18.06
2018-06-02T07:56:56.686Z,18.09
2018-06-02T07:58:05.326Z,18.18
2018-06-02T07:59:13.980Z,18.11
2018-06-02T08:00:22.890Z,18.15
2018-06-02T08:01:31.548Z,18.26
2018-06-02T08:02:40.186Z,18.3
2018-06-02T08:03:48.835Z,18.27
2018-06-02T08:04:57.484Z,18.36
2018-06-02T08:06:06.665Z,18.34
2018-06-02T08:07:15.320Z,18.43
2018-06-02T08:08:24.275Z,18.36
2018-06-02T08:09:32.869Z,18.33
2018-06-02T08:10:41.517Z,18.3
2018-06-02T08:11:50.170Z,18.36
2018-06-02T08:12:58.821Z,18.41
2018-06-02T08:14:07.725Z,18.31
2018-06-02T08:15:16.655Z,18.42
2018-06-02T08:16:25.295Z,18.3
2018-06-02T08:17:34.219Z,18.37
2018-06-02T08:18:42.863Z,18.41
2018-06-02T08:19:51.516Z,18.39
2018-06-02T08:21:00.163Z,18.39
2018-06-02T08:22:08.805Z,18.39
2018-06-02T08:23:17.452Z,18.43
2018-06-02T08:24:26.111Z,18.39
2018-06-02T08:25:34.754Z,18.34
2018-06-02T08:26:43.404Z,18.36
2018-06-02T08:27:52.059Z,18.33
2018-06-02T08:29:00.706Z,18.33
2018-06-02T08:30:09.635Z,18.24
2018-06-02T08:31:18.279Z,18.24
2018-06-02T08:32:26.935Z,18.3
2018-06-02T08:33:35.991Z,18.28
2018-06-02T08:34:44.596Z,18.33
2018-06-02T08:35:53.239Z,18.34
2018-06-02T08:37:01.890Z,18.33
2018-06-02T08:38:10.528Z,18.45
2018-06-02T08:39:19.183Z,18.43
2018-06-02T08:40:27.829Z,18.37
2018-06-02T08:41:36.480Z,18.51
2018-06-02T08:42:45.116Z,18.45
2018-06-02T08:43:53.765Z,18.53
2018-06-02T08:45:02.685Z,18.41
2018-06-02T08:46:11.345Z,18.52
2018-06-02T08:47:20.247Z,18.55
2018-06-02T08:48:28.893Z,18.51
2018-06-02T08:49:37.545Z,18.58
2018-06-02T08:50:46.189Z,18.58
2018-06-02T08:51:54.851Z,18.67
2018-06-02T08:53:03.490Z,18.61
2018-06-02T08:54:12.145Z,18.74
2018-06-02T08:55:21.053Z,18.74
2018-06-02T08:56:29.720Z,18.81
2018-06-02T08:57:38.356Z,18.89
2018-06-02T08:58:47.006Z,18.92
2018-06-02T08:59:55.651Z,18.96
2018-06-02T09:01:04.308Z,18.97
2018-06-02T09:02:12.953Z,18.96
2018-06-02T09:03:21.598Z,19.01
2018-06-02T09:04:30.244Z,18.94
2018-06-02T09:05:38.890Z,18.91
2018-06-02T09:06:47.545Z,18.96
2018-06-02T09:07:56.192Z,18.85
2018-06-02T09:09:04.845Z,18.97
2018-06-02T09:10:13.744Z,18.97
2018-06-02T09:11:22.401Z,18.96
2018-06-02T09:12:31.321Z,19.07
2018-06-02T09:13:39.964Z,19
2018-06-02T09:14:48.612Z,19.05
2018-06-02T09:15:58.122Z,19.01
2018-06-02T09:17:06.770Z,19.04
2018-06-02T09:18:15.427Z,19.15
2018-06-02T09:19:24.072Z,19.05
2018-06-02T09:20:32.717Z,19.09
2018-06-02T09:21:41.409Z,19.08
2018-06-02T09:22:50.016Z,19.07
2018-06-02T09:23:58.670Z,19.05
2018-06-02T09:25:07.571Z,19.11
2018-06-02T09:26:16.220Z,19.08
2018-06-02T09:27:24.869Z,19.11
2018-06-02T09:28:33.522Z,19.19
2018-06-02T09:29:42.168Z,19.19
2018-06-02T09:30:50.814Z,19.29
2018-06-02T09:31:59.462Z,19.32
2018-06-02T09:33:08.114Z,19.48
2018-06-02T09:34:17.023Z,19.56
2018-06-02T09:35:25.672Z,19.67
2018-06-02T09:36:34.584Z,19.78
2018-06-02T09:37:43.237Z,19.82
2018-06-02T09:38:51.883Z,19.89
2018-06-02T09:40:00.539Z,20.03
2018-06-02T09:41:09.190Z,20.04
2018-06-02T09:42:18.100Z,20.11
2018-06-02T09:43:26.760Z,20.18
2018-06-02T09:44:35.669Z,20.17
2018-06-02T09:45:44.322Z,20.19
2018-06-02T09:46:53.239Z,20.21
2018-06-02T09:48:01.893Z,20.22
2018-06-02T09:49:10.817Z,20.26
2018-06-02T09:50:19.464Z,20.27
2018-06-02T09:51:28.371Z,20.33
2018-06-02T09:52:37.032Z,20.34
2018-06-02T09:53:45.677Z,20.33
2018-06-02T09:54:54.329Z,20.32
2018-06-02T09:56:02.973Z,20.39
2018-06-02T09:57:11.626Z,20.26
2018-06-02T09:58:20.275Z,20.29
2018-06-02T09:59:28.926Z,20.26
2018-06-02T10:00:37.852Z,20.26
2018-06-02T10:01:46.499Z,20.29
2018-06-02T10:02:55.412Z,20.24
2018-06-02T10:04:04.061Z,20.26
2018-06-02T10:05:12.719Z,20.22
2018-06-02T10:06:21.366Z,20.3
2018-06-02T10:07:30.014Z,20.19
2018-06-02T10:08:38.666Z,20.15
2018-06-02T10:09:47.319Z,20.14
2018-06-02T10:10:55.959Z,20.21
2018-06-02T10:12:04.616Z,20.15
2018-06-02T10:13:13.261Z,20.15
2018-06-02T10:14:22.453Z,20.21
2018-06-02T10:15:31.107Z,20.14
2018-06-02T10:16:39.753Z,20.14
2018-06-02T10:17:48.398Z,20.15
2018-06-02T10:18:57.047Z,20.14
2018-06-02T10:20:05.969Z,20.12
2018-06-02T10:21:14.657Z,20.12
2018-06-02T10:22:23.269Z,20.07
2018-06-02T10:23:32.183Z,20.26
2018-06-02T10:24:40.840Z,20.21
2018-06-02T10:25:49.491Z,20.24
2018-06-02T10:26:58.143Z,20.26
2018-06-02T10:28:06.782Z,20.46
2018-06-02T10:29:15.442Z,20.46
2018-06-02T10:30:24.087Z,20.58
2018-06-02T10:31:32.739Z,20.63
2018-06-02T10:32:41.380Z,20.6
2018-06-02T10:33:50.031Z,20.71
2018-06-02T10:34:58.687Z,20.71
2018-06-02T10:36:08.140Z,20.75
2018-06-02T10:37:16.793Z,20.8
2018-06-02T10:38:25.434Z,20.9
2018-06-02T10:39:34.088Z,21.07
2018-06-02T10:40:42.735Z,21.23
2018-06-02T10:41:51.392Z,21.43
2018-06-02T10:43:00.034Z,21.53
2018-06-02T10:44:08.687Z,21.65
2018-06-02T10:45:17.331Z,21.85
2018-06-02T10:46:26.259Z,21.84
2018-06-02T10:47:34.901Z,21.89
2018-06-02T10:48:43.552Z,21.84
2018-06-02T10:49:52.466Z,21.81
2018-06-02T10:51:01.126Z,21.97
2018-06-02T10:52:09.775Z,21.96
2018-06-02T10:53:18.425Z,22.08
2018-06-02T10:54:27.346Z,22.14
2018-06-02T10:55:36.258Z,22.18
2018-06-02T10:56:44.916Z,22.25
2018-06-02T10:57:53.563Z,22.38
2018-06-02T10:59:02.219Z,22.28
2018-06-02T11:00:10.861Z,22.26
2018-06-02T11:01:19.791Z,22.21
2018-06-02T11:02:28.439Z,22.16
2018-06-02T11:03:37.094Z,22.15
2018-06-02T11:04:46.008Z,22.1
2018-06-02T11:05:54.668Z,22.12
2018-06-02T11:07:03.317Z,22.12
2018-06-02T11:08:11.969Z,22.18
2018-06-02T11:09:20.616Z,22.06
2018-06-02T11:10:29.540Z,21.99
2018-06-02T11:11:38.191Z,21.94
2018-06-02T11:12:46.844Z,21.94
2018-06-02T11:13:55.507Z,21.84
2018-06-02T11:15:04.150Z,21.89
2018-06-02T11:16:12.801Z,21.89
2018-06-02T11:17:21.452Z,22.08
2018-06-02T11:18:30.107Z,22.07
2018-06-02T11:19:38.754Z,22.12
2018-06-02T11:20:47.668Z,22.16
2018-06-02T11:21:56.319Z,22.22
2018-06-02T11:23:04.973Z,22.19
2018-06-02T11:24:13.623Z,22.38
2018-06-02T11:25:22.536Z,22.47
2018-06-02T11:26:31.186Z,22.53
2018-06-02T11:27:39.842Z,22.56
2018-06-02T11:28:48.490Z,22.56
2018-06-02T11:29:57.143Z,22.59
2018-06-02T11:31:05.798Z,22.65
2018-06-02T11:32:14.755Z,22.68
2018-06-02T11:33:23.362Z,22.74
2018-06-02T11:34:32.293Z,22.7
2018-06-02T11:35:40.944Z,22.83
2018-06-02T11:36:49.591Z,22.84
2018-06-02T11:37:58.251Z,22.91
2018-06-02T11:39:06.905Z,22.99
2018-06-02T11:40:15.557Z,23.06
2018-06-02T11:41:24.209Z,23.04
2018-06-02T11:42:32.861Z,22.98
2018-06-02T11:43:41.786Z,22.99
2018-06-02T11:44:50.451Z,22.99
2018-06-02T11:45:59.095Z,22.76
2018-06-02T11:47:07.749Z,22.77
2018-06-02T11:48:16.402Z,22.58
2018-06-02T11:49:25.320Z,22.58
2018-06-02T11:50:33.977Z,22.51
2018-06-02T11:51:42.622Z,22.52
2018-06-02T11:52:51.541Z,22.46
2018-06-02T11:54:00.192Z,22.47
2018-06-02T11:55:09.119Z,22.46
2018-06-02T11:56:17.764Z,22.59
2018-06-02T11:57:26.420Z,22.59
2018-06-02T11:58:35.337Z,22.73
2018-06-02T11:59:44.003Z,22.73
2018-06-02T12:00:52.644Z,22.7
2018-06-02T12:02:01.861Z,22.73
2018-06-02T12:03:10.772Z,22.7
2018-06-02T12:04:19.426Z,22.78
2018-06-02T12:05:28.081Z,22.7
2018-06-02T12:06:36.732Z,22.73
2018-06-02T12:07:45.389Z,22.86
2018-06-02T12:08:54.043Z,22.83
2018-06-02T12:10:02.689Z,22.78
2018-06-02T12:11:11.342Z,22.74
2018-06-02T12:12:20.258Z,22.73
2018-06-02T12:13:29.186Z,22.76
2018-06-02T12:14:37.830Z,22.73
2018-06-02T12:15:46.484Z,22.7
2018-06-02T12:16:55.141Z,22.63
2018-06-02T12:18:03.795Z,22.7
2018-06-02T12:19:12.705Z,22.68
2018-06-02T12:20:21.635Z,22.58
2018-06-02T12:21:30.294Z,22.77
2018-06-02T12:22:38.953Z,22.84
2018-06-02T12:23:47.594Z,22.88
2018-06-02T12:24:56.249Z,22.89
2018-06-02T12:26:04.898Z,22.91
2018-06-02T12:27:13.544Z,22.89
2018-06-02T12:28:22.210Z,22.84
2018-06-02T12:29:31.125Z,22.71
2018-06-02T12:30:39.776Z,22.59
2018-06-02T12:31:48.422Z,22.58
2018-06-02T12:32:57.081Z,22.52
2018-06-02T12:34:05.734Z,22.46
2018-06-02T12:35:14.648Z,22.33
2018-06-02T12:36:23.301Z,22.36
2018-06-02T12:37:32.215Z,22.38
2018-06-02T12:38:40.869Z,22.41
2018-06-02T12:39:49.517Z,22.3
2018-06-02T12:40:58.164Z,22.21
2018-06-02T12:42:06.820Z,22.21
2018-06-02T12:43:15.473Z,22.21
2018-06-02T12:44:24.125Z,22.28
2018-06-02T12:45:32.790Z,22.4
2018-06-02T12:46:41.427Z,22.53
2018-06-02T12:47:50.076Z,22.52
2018-06-02T12:48:58.998Z,22.68
2018-06-02T12:50:07.655Z,22.78
2018-06-02T12:51:16.303Z,22.77
2018-06-02T12:52:24.954Z,22.76
2018-06-02T12:53:33.610Z,22.83
2018-06-02T12:54:42.267Z,22.83
2018-06-02T12:55:51.177Z,22.8
2018-06-02T12:57:00.107Z,22.77
2018-06-02T12:58:08.748Z,22.84
2018-06-02T12:59:17.404Z,22.78
2018-06-02T13:00:26.055Z,22.78
2018-06-02T13:01:34.704Z,22.8
2018-06-02T13:02:43.620Z,22.76
2018-06-02T13:03:52.271Z,22.73
2018-06-02T13:05:00.930Z,22.59
2018-06-02T13:06:09.579Z,22.58
2018-06-02T13:07:18.236Z,22.43
2018-06-02T13:08:26.880Z,22.41
2018-06-02T13:09:35.543Z,22.33
2018-06-02T13:10:44.189Z,22.3
2018-06-02T13:11:53.117Z,22.21
2018-06-02T13:13:02.026Z,22.14
2018-06-02T13:14:10.690Z,22.15
2018-06-02T13:15:19.339Z,22.3
2018-06-02T13:16:27.995Z,22.52
2018-06-02T13:17:36.636Z,22.52
2018-06-02T13:18:45.557Z,22.58
2018-06-02T13:19:54.212Z,22.8
2018-06-02T13:21:02.867Z,22.92
2018-06-02T13:22:11.523Z,22.89
2018-06-02T13:23:20.169Z,23.08
2018-06-02T13:24:29.092Z,23.18
2018-06-02T13:25:37.738Z,23.18
2018-06-02T13:26:46.398Z,23.25
2018-06-02T13:27:55.042Z,23.2
2018-06-02T13:29:03.956Z,23.16
2018-06-02T13:30:12.604Z,23.07
2018-06-02T13:31:21.266Z,22.96
2018-06-02T13:32:30.433Z,22.89
2018-06-02T13:33:39.092Z,22.74
2018-06-02T13:34:47.739Z,22.68
2018-06-02T13:35:56.398Z,22.59
2018-06-02T13:37:05.047Z,22.41
2018-06-02T13:38:13.692Z,22.36
2018-06-02T13:39:22.344Z,22.15
2018-06-02T13:40:30.992Z,21.99
2018-06-02T13:41:39.654Z,21.83
2018-06-02T13:42:48.302Z,21.81
2018-06-02T13:43:56.957Z,21.69
2018-06-02T13:45:05.600Z,21.65
2018-06-02T13:46:14.525Z,21.59
2018-06-02T13:47:23.175Z,21.54
2018-06-02T13:48:32.097Z,21.54
2018-06-02T13:49:41.012Z,21.58
2018-06-02T13:50:49.678Z,21.58
2018-06-02T13:51:58.856Z,21.54
2018-06-02T13:53:07.510Z,21.58
2018-06-02T13:54:16.151Z,21.69
2018-06-02T13:55:24.803Z,21.68
2018-06-02T13:56:33.459Z,21.68
2018-06-02T13:57:42.112Z,21.8
2018-06-02T13:58:50.770Z,21.92
2018-06-02T13:59:59.412Z,21.96
2018-06-02T14:01:08.339Z,22.03
2018-06-02T14:02:16.981Z,22.1
2018-06-02T14:03:25.641Z,22.1
2018-06-02T14:04:34.292Z,22.21
2018-06-02T14:05:42.942Z,22.26
2018-06-02T14:06:51.590Z,22.26
2018-06-02T14:08:00.235Z,22.19
2018-06-02T14:09:09.161Z,22.14
2018-06-02T14:10:17.809Z,22.08
2018-06-02T14:11:26.722Z,22.12
2018-06-02T14:12:35.415Z,22.08
2018-06-02T14:13:44.028Z,21.88
2018-06-02T14:14:52.679Z,21.84
2018-06-02T14:16:01.334Z,21.74
2018-06-02T14:17:09.986Z,21.74
2018-06-02T14:18:18.634Z,21.8
2018-06-02T14:19:27.285Z,21.72
2018-06-02T14:20:35.936Z,21.7
2018-06-02T14:21:44.593Z,21.83
2018-06-02T14:22:53.240Z,21.85
2018-06-02T14:24:02.156Z,21.96
2018-06-02T14:25:10.810Z,21.99
2018-06-02T14:26:19.733Z,22.15
2018-06-02T14:27:28.650Z,22.16
2018-06-02T14:28:37.577Z,22.38
2018-06-02T14:29:46.490Z,22.41
2018-06-02T14:30:55.532Z,22.52
2018-06-02T14:32:04.131Z,22.53
2018-06-02T14:33:12.782Z,22.68
2018-06-02T14:34:21.429Z,22.73
2018-06-02T14:35:30.078Z,22.68
2018-06-02T14:36:38.736Z,22.59
2018-06-02T14:37:47.388Z,22.68
2018-06-02T14:38:56.041Z,22.7
2018-06-02T14:40:05.222Z,22.52
2018-06-02T14:41:13.876Z,22.56
2018-06-02T14:42:22.528Z,22.59
2018-06-02T14:43:31.180Z,22.7
2018-06-02T14:44:39.827Z,22.7
2018-06-02T14:45:48.488Z,22.76
2018-06-02T14:46:57.138Z,22.7
2018-06-02T14:48:05.793Z,22.7